Time;durP1;ratioP1;P1;durP2;ratioP2;P2;SDS_P1;SDS_P2;PMS_P1;PMS_P2;Temp;Humidity;BMP_temperature;BMP_pressure;BME280_temperature;BME280_humidity;BME280_pressure;Samples;Min_cycle;Max_cycle;Signal;HPM_P1;HPM_P2
2023/08/15 00:01:29;;;;;;;6.47;4.10;;;19.50;99.90;;;;;;4230226;28;20040;-81
2023/08/15 00:03:32;;;;;;;7.20;3.95;;;19.50;99.90;;;;;;4230789;28;20411;-80
2023/08/15 00:05:35;;;;;;;8.48;3.60;;;19.50;99.90;;;;;;4225532;28;20079;-81
2023/08/15 00:07:36;;;;;;;8.18;3.67;;;19.00;99.90;;;;;;4218344;28;20043;-80
2023/08/15 00:09:37;;;;;;;5.43;4.18;;;19.40;99.90;;;;;;4214796;28;20078;-80
2023/08/15 00:11:38;;;;;;;8.65;3.80;;;19.90;99.90;;;;;;4215122;28;20385;-80
2023/08/15 00:13:39;;;;;;;7.30;3.85;;;19.30;99.90;;;;;;4214922;28;20109;-79
2023/08/15 00:15:40;;;;;;;8.18;4.50;;;18.60;99.90;;;;;;4214811;28;20044;-80
2023/08/15 00:17:42;;;;;;;7.43;4.10;;;19.20;99.90;;;;;;4217601;28;20125;-80
2023/08/15 00:19:42;;;;;;;9.15;4.50;;;19.30;99.90;;;;;;4214292;28;20051;-80
2023/08/15 00:21:43;;;;;;;7.43;4.38;;;19.20;99.90;;;;;;4213563;28;20047;-80
2023/08/15 00:23:44;;;;;;;8.82;4.78;;;19.20;99.90;;;;;;4213049;28;20432;-80
2023/08/15 00:25:45;;;;;;;12.70;5.35;;;19.20;99.90;;;;;;4213221;28;20119;-80
2023/08/15 00:27:46;;;;;;;7.85;5.28;;;19.20;99.90;;;;;;4214648;28;20040;-80
2023/08/15 00:29:46;;;;;;;7.03;4.80;;;19.20;99.90;;;;;;4214586;28;20071;-79
2023/08/15 00:31:53;;;;;;;7.32;4.13;;;18.40;99.90;;;;;;4214959;28;20040;-79
2023/08/15 00:34:01;;;;;;;14.82;4.97;;;19.20;99.90;;;;;;4214448;28;20040;-80
2023/08/15 00:36:04;;;;;;;10.32;4.70;;;19.20;99.90;;;;;;4213529;28;20050;-80
2023/08/15 00:38:04;;;;;;;9.38;4.60;;;19.20;99.90;;;;;;4213231;28;20141;-80
2023/08/15 00:40:06;;;;;;;10.23;5.07;;;19.20;99.90;;;;;;4214376;28;20040;-80
2023/08/15 00:42:07;;;;;;;10.88;5.60;;;19.20;99.90;;;;;;4212814;28;20055;-80
2023/08/15 00:44:08;;;;;;;15.57;5.15;;;19.10;99.90;;;;;;4214180;28;20047;-80
2023/08/15 00:46:09;;;;;;;7.03;4.55;;;19.20;99.90;;;;;;4214267;28;20062;-80
2023/08/15 00:48:11;;;;;;;8.77;5.32;;;19.20;99.90;;;;;;4214586;28;20047;-80
2023/08/15 00:50:13;;;;;;;9.32;5.40;;;19.20;99.90;;;;;;4214624;28;20404;-80
2023/08/15 00:52:15;;;;;;;8.70;4.63;;;19.20;99.90;;;;;;4214375;28;20040;-80
2023/08/15 00:54:16;;;;;;;9.65;4.82;;;19.20;99.90;;;;;;4214071;28;20040;-80
2023/08/15 00:56:18;;;;;;;9.40;5.15;;;19.20;99.90;;;;;;4213881;28;20050;-80
2023/08/15 00:58:19;;;;;;;7.60;4.22;;;19.20;99.90;;;;;;4214297;28;20054;-80
2023/08/15 01:00:21;;;;;;;9.40;4.70;;;19.20;99.90;;;;;;4214362;28;20051;-80
2023/08/15 01:02:23;;;;;;;8.95;5.28;;;19.20;99.90;;;;;;4214665;28;20177;-80
2023/08/15 01:04:24;;;;;;;9.27;4.85;;;19.20;99.90;;;;;;4214035;28;20118;-80
2023/08/15 01:06:25;;;;;;;11.52;5.20;;;19.20;99.90;;;;;;4213704;28;20938;-80
2023/08/15 01:08:25;;;;;;;11.85;5.07;;;19.10;99.90;;;;;;4212736;28;20046;-80
2023/08/15 01:10:26;;;;;;;7.80;4.65;;;19.10;99.90;;;;;;4214299;28;20453;-80
2023/08/15 01:12:44;;;;;;;10.73;5.05;;;19.10;99.90;;;;;;4214031;28;20506;-80
2023/08/15 01:15:01;;;;;;;10.68;5.15;;;19.10;99.90;;;;;;4214040;28;20499;-80
2023/08/15 01:17:04;;;;;;;8.80;4.78;;;19.10;99.90;;;;;;4213914;28;20059;-80
2023/08/15 01:19:38;;;;;;;12.18;5.03;;;19.10;99.90;;;;;;4214335;28;20496;-80
2023/08/15 01:21:43;;;;;;;8.73;5.03;;;19.10;99.90;;;;;;4213630;28;20032;-80
2023/08/15 01:23:45;;;;;;;14.10;5.57;;;19.10;99.90;;;;;;4213797;28;20068;-80
2023/08/15 01:25:49;;;;;;;10.10;5.65;;;19.10;99.90;;;;;;4213721;28;20119;-80
2023/08/15 01:27:50;;;;;;;9.82;5.38;;;19.00;99.90;;;;;;4214103;28;20032;-79
2023/08/15 01:29:50;;;;;;;9.50;5.38;;;19.00;99.90;;;;;;4213640;28;20174;-80
2023/08/15 01:32:10;;;;;;;7.90;4.90;;;19.00;99.90;;;;;;4213593;28;20038;-80
2023/08/15 01:34:18;;;;;;;6.95;4.78;;;19.00;99.90;;;;;;4214036;28;20048;-80
2023/08/15 01:36:33;;;;;;;9.05;5.00;;;19.00;99.90;;;;;;4213472;28;20076;-80
2023/08/15 01:38:43;;;;;;;10.07;5.20;;;19.00;99.90;;;;;;4212833;28;20203;-80
2023/08/15 01:40:47;;;;;;;10.52;5.97;;;19.00;99.90;;;;;;4212555;28;20049;-80
2023/08/15 01:42:50;;;;;;;13.77;6.00;;;18.90;99.90;;;;;;4214134;28;20044;-80
2023/08/15 01:44:53;;;;;;;10.73;5.35;;;18.90;99.90;;;;;;4213717;28;20119;-80
2023/08/15 01:46:55;;;;;;;7.53;4.53;;;18.90;99.90;;;;;;4214063;28;20084;-80
2023/08/15 01:48:57;;;;;;;8.00;4.75;;;18.90;99.90;;;;;;4217206;28;20048;-79
2023/08/15 01:50:59;;;;;;;9.32;4.95;;;18.90;99.90;;;;;;4217240;28;20044;-79
2023/08/15 01:53:00;;;;;;;9.10;5.57;;;18.90;99.90;;;;;;4217023;28;20044;-79
2023/08/15 01:55:00;;;;;;;11.07;5.18;;;18.90;99.90;;;;;;4215721;28;20046;-79
2023/08/15 01:57:01;;;;;;;9.43;5.30;;;18.90;99.90;;;;;;4216784;28;20125;-79
2023/08/15 01:59:02;;;;;;;8.52;4.95;;;18.80;99.90;;;;;;4217128;28;20101;-79
2023/08/15 02:01:03;;;;;;;11.00;5.28;;;18.80;99.90;;;;;;4217121;28;20075;-79
2023/08/15 02:03:04;;;;;;;9.70;4.72;;;18.80;99.90;;;;;;4216018;28;20043;-79
2023/08/15 02:05:06;;;;;;;9.82;5.35;;;18.80;99.90;;;;;;4216050;28;20040;-79
2023/08/15 02:07:06;;;;;;;14.00;5.55;;;18.80;99.90;;;;;;4217534;28;20040;-79
2023/08/15 02:09:07;;;;;;;10.85;5.07;;;18.70;99.90;;;;;;4216604;28;20047;-79
2023/08/15 02:11:08;;;;;;;8.90;5.45;;;18.70;99.90;;;;;;4216876;28;20043;-78
2023/08/15 02:13:09;;;;;;;8.02;5.35;;;18.70;99.90;;;;;;4216940;28;20033;-79
2023/08/15 02:15:12;;;;;;;11.52;5.53;;;18.70;99.90;;;;;;4216750;28;20043;-79
2023/08/15 02:17:12;;;;;;;17.23;5.55;;;18.70;99.90;;;;;;4217385;28;20091;-79
2023/08/15 02:19:13;;;;;;;9.95;4.90;;;18.70;99.90;;;;;;4216809;28;20052;-79
2023/08/15 02:21:14;;;;;;;17.13;5.65;;;18.60;99.90;;;;;;4215990;28;20081;-79
2023/08/15 02:23:15;;;;;;;11.20;5.30;;;18.60;99.90;;;;;;4215930;28;20046;-79
2023/08/15 02:25:16;;;;;;;12.07;5.38;;;18.60;99.90;;;;;;4216531;28;20056;-78
2023/08/15 02:27:16;;;;;;;9.40;5.90;;;18.60;99.90;;;;;;4216617;28;20058;-78
2023/08/15 02:29:17;;;;;;;10.45;4.72;;;18.60;99.90;;;;;;4217122;28;20040;-78
2023/08/15 02:31:18;;;;;;;15.50;5.60;;;18.60;99.90;;;;;;4216356;28;20049;-79
2023/08/15 02:33:18;;;;;;;10.73;6.03;;;18.60;99.90;;;;;;4216473;28;20040;-79
2023/08/15 02:35:19;;;;;;;12.85;5.68;;;18.60;99.90;;;;;;4216469;28;20042;-79
2023/08/15 02:37:20;;;;;;;11.40;5.60;;;18.60;99.90;;;;;;4215057;28;20075;-79
2023/08/15 02:39:20;;;;;;;7.22;4.55;;;18.60;99.90;;;;;;4216153;28;20044;-79
2023/08/15 02:41:22;;;;;;;7.38;4.40;;;18.60;99.90;;;;;;4216317;28;20078;-79
2023/08/15 02:43:22;;;;;;;9.70;4.70;;;18.60;99.90;;;;;;4216202;28;20061;-79
2023/08/15 02:45:23;;;;;;;11.43;4.85;;;18.60;99.90;;;;;;4215999;28;20044;-79
2023/08/15 02:47:24;;;;;;;11.68;4.90;;;18.60;99.90;;;;;;4216439;28;20798;-79
2023/08/15 02:49:25;;;;;;;9.15;4.75;;;18.60;99.90;;;;;;4216267;28;20052;-79
2023/08/15 02:51:25;;;;;;;9.10;4.80;;;18.60;99.90;;;;;;4216140;28;20044;-79
2023/08/15 02:53:26;;;;;;;11.85;6.07;;;18.60;99.90;;;;;;4214590;28;20048;-78
2023/08/15 02:55:27;;;;;;;9.25;4.90;;;18.60;99.90;;;;;;4216424;28;20135;-78
2023/08/15 02:57:27;;;;;;;8.13;4.68;;;18.60;99.90;;;;;;4216215;28;20062;-80
2023/08/15 02:59:28;;;;;;;9.98;4.78;;;18.60;99.90;;;;;;4214866;28;20086;-80
2023/08/15 03:01:29;;;;;;;6.78;4.22;;;18.60;99.90;;;;;;4215939;28;20507;-80
2023/08/15 03:03:29;;;;;;;11.07;4.75;;;18.60;99.90;;;;;;4215855;28;20123;-80
2023/08/15 03:05:30;;;;;;;8.68;4.68;;;18.60;99.90;;;;;;4215223;28;20075;-80
2023/08/15 03:07:31;;;;;;;12.00;5.22;;;18.60;99.90;;;;;;4215802;28;20044;-80
2023/08/15 03:09:32;;;;;;;10.63;5.53;;;18.60;99.90;;;;;;4216027;28;20047;-79
2023/08/15 03:11:32;;;;;;;13.32;4.90;;;18.60;99.90;;;;;;4215734;28;20119;-80
2023/08/15 03:13:33;;;;;;;11.55;5.13;;;18.50;99.90;;;;;;4215842;28;20050;-80
2023/08/15 03:15:35;;;;;;;8.30;5.00;;;18.50;99.90;;;;;;4216004;28;20062;-80
2023/08/15 03:17:36;;;;;;;9.95;5.50;;;18.60;99.90;;;;;;4215924;28;20128;-80
2023/08/15 03:19:37;;;;;;;10.40;5.13;;;18.50;99.90;;;;;;4215860;28;20051;-79
2023/08/15 03:21:38;;;;;;;12.38;6.25;;;18.50;99.90;;;;;;4213437;28;20044;-80
2023/08/15 03:23:39;;;;;;;7.88;4.65;;;18.50;99.90;;;;;;4215271;28;20564;-80
2023/08/15 03:25:39;;;;;;;14.10;5.63;;;18.50;99.90;;;;;;4215579;28;20403;-80
2023/08/15 03:27:40;;;;;;;9.55;4.95;;;18.50;99.90;;;;;;4215476;28;20036;-79
2023/08/15 03:29:41;;;;;;;12.73;6.28;;;18.50;99.90;;;;;;4214454;28;20494;-80
2023/08/15 03:31:41;;;;;;;7.55;4.35;;;18.50;99.90;;;;;;4215463;28;20075;-79
2023/08/15 03:33:42;;;;;;;10.00;5.18;;;18.50;99.90;;;;;;4215055;28;20048;-80
2023/08/15 03:35:46;;;;;;;12.02;5.18;;;18.50;99.90;;;;;;4215632;28;20424;-80
2023/08/15 03:37:47;;;;;;;11.35;4.60;;;18.50;99.90;;;;;;4215509;28;20043;-79
2023/08/15 03:39:48;;;;;;;11.43;4.90;;;18.60;99.90;;;;;;4215157;28;20180;-80
2023/08/15 03:41:48;;;;;;;10.35;5.55;;;18.60;99.90;;;;;;4215445;28;20051;-79
2023/08/15 03:43:49;;;;;;;11.00;5.05;;;18.60;99.90;;;;;;4215375;28;20051;-80
2023/08/15 03:45:50;;;;;;;13.38;5.35;;;18.60;99.90;;;;;;4215398;28;20054;-80
2023/08/15 03:47:50;;;;;;;11.57;5.90;;;18.60;99.90;;;;;;4215270;28;20407;-80
2023/08/15 03:49:51;;;;;;;8.57;5.57;;;18.70;99.90;;;;;;4214969;28;20040;-80
2023/08/15 03:51:52;;;;;;;9.52;5.47;;;18.70;99.90;;;;;;4215161;28;20032;-80
2023/08/15 03:53:52;;;;;;;9.98;4.82;;;18.70;99.90;;;;;;4215176;28;20044;-80
2023/08/15 03:55:54;;;;;;;12.60;6.05;;;18.70;99.90;;;;;;4213781;28;20048;-79
2023/08/15 03:57:55;;;;;;;10.23;5.50;;;18.70;99.90;;;;;;4215229;28;20044;-79
2023/08/15 03:59:56;;;;;;;8.98;5.25;;;18.70;99.90;;;;;;4215165;28;20040;-80
2023/08/15 04:01:56;;;;;;;10.57;5.55;;;18.70;99.90;;;;;;4214583;28;20484;-79
2023/08/15 04:03:57;;;;;;;10.18;5.70;;;18.70;99.90;;;;;;4215102;28;20044;-80
2023/08/15 04:05:58;;;;;;;11.13;6.00;;;18.70;99.90;;;;;;4215012;28;20040;-79
2023/08/15 04:08:02;;;;;;;14.40;6.03;;;18.70;99.90;;;;;;4213546;28;20044;-80
2023/08/15 04:10:04;;;;;;;11.90;5.60;;;18.70;99.90;;;;;;4214846;28;20085;-79
2023/08/15 04:12:05;;;;;;;8.05;5.50;;;18.70;99.90;;;;;;4214526;28;20040;-79
2023/08/15 04:14:05;;;;;;;9.13;5.95;;;18.70;99.90;;;;;;4214739;28;20036;-80
2023/08/15 04:16:06;;;;;;;12.50;6.45;;;18.70;99.90;;;;;;4213554;28;20125;-80
2023/08/15 04:18:08;;;;;;;14.85;6.55;;;18.70;99.90;;;;;;4214870;28;20040;-79
2023/08/15 04:20:10;;;;;;;12.02;6.47;;;18.70;99.90;;;;;;4213710;28;20531;-79
2023/08/15 04:22:11;;;;;;;12.77;6.32;;;18.70;99.90;;;;;;4213583;28;20553;-80
2023/08/15 04:24:12;;;;;;;12.48;6.22;;;18.70;99.90;;;;;;4213787;28;20087;-80
2023/08/15 04:26:13;;;;;;;12.27;6.60;;;18.70;99.90;;;;;;4214449;28;20504;-80
2023/08/15 04:28:13;;;;;;;11.77;7.05;;;18.70;99.90;;;;;;4214716;28;20396;-79
2023/08/15 04:30:14;;;;;;;9.77;6.45;;;19.30;99.90;;;;;;4214461;28;20054;-80
2023/08/15 04:32:15;;;;;;;13.75;6.70;;;18.70;99.90;;;;;;4214569;28;20383;-80
2023/08/15 04:34:16;;;;;;;13.32;6.45;;;18.70;99.90;;;;;;4214663;28;20040;-79
2023/08/15 04:36:17;;;;;;;15.07;6.97;;;18.70;99.90;;;;;;4214667;28;20551;-79
2023/08/15 04:38:18;;;;;;;15.80;6.85;;;18.60;99.90;;;;;;4213826;28;20209;-80
2023/08/15 04:40:37;;;;;;;13.48;6.70;;;18.70;99.90;;;;;;4214450;28;20824;-80
2023/08/15 04:42:39;;;;;;;11.10;6.10;;;18.60;99.90;;;;;;4213101;28;20052;-80
2023/08/15 04:44:40;;;;;;;12.50;7.47;;;18.60;99.90;;;;;;4213114;28;20040;-79
2023/08/15 04:46:41;;;;;;;19.40;7.30;;;18.60;99.90;;;;;;4214445;28;20551;-80
2023/08/15 04:48:41;;;;;;;16.25;7.22;;;18.60;99.90;;;;;;4214518;28;20380;-79
2023/08/15 04:50:42;;;;;;;11.13;6.75;;;18.60;99.90;;;;;;4214121;28;20052;-79
2023/08/15 04:52:43;;;;;;;13.60;6.43;;;18.60;99.90;;;;;;4214003;28;20139;-80
2023/08/15 04:54:43;;;;;;;14.38;6.90;;;18.60;99.90;;;;;;4214023;28;20565;-80
2023/08/15 04:56:44;;;;;;;10.88;6.20;;;18.60;99.90;;;;;;4212946;28;20044;-80
2023/08/15 04:58:45;;;;;;;15.27;6.60;;;18.70;99.90;;;;;;4213249;28;20056;-79
2023/08/15 05:00:47;;;;;;;19.08;8.13;;;18.70;99.90;;;;;;4214331;28;20047;-80
2023/08/15 05:02:48;;;;;;;13.77;6.30;;;18.60;99.90;;;;;;4213930;28;20036;-79
2023/08/15 05:04:49;;;;;;;17.17;6.40;;;18.70;99.90;;;;;;4214089;28;20059;-80
2023/08/15 05:06:50;;;;;;;12.65;5.93;;;18.70;99.90;;;;;;4214247;28;20036;-80
2023/08/15 05:08:50;;;;;;;19.70;5.70;;;18.70;99.90;;;;;;4212870;28;20134;-80
2023/08/15 05:10:52;;;;;;;11.45;6.13;;;18.70;99.90;;;;;;4213591;28;20047;-79
2023/08/15 05:12:53;;;;;;;16.88;6.88;;;18.70;99.90;;;;;;4214209;28;20051;-80
2023/08/15 05:14:53;;;;;;;12.82;5.07;;;18.60;99.90;;;;;;4214249;28;20425;-80
2023/08/15 05:16:54;;;;;;;8.98;5.18;;;18.70;99.90;;;;;;4213946;28;20044;-80
2023/08/15 05:18:55;;;;;;;8.85;4.78;;;18.70;99.90;;;;;;4214244;28;20479;-80
2023/08/15 05:20:56;;;;;;;8.35;4.45;;;18.70;99.90;;;;;;4212689;28;20059;-79
2023/08/15 05:22:56;;;;;;;8.05;5.00;;;18.70;99.90;;;;;;4219215;28;20047;-80
2023/08/15 05:24:57;;;;;;;8.75;4.68;;;18.70;99.90;;;;;;4219243;28;20059;-80
2023/08/15 05:26:58;;;;;;;7.18;4.45;;;18.70;99.90;;;;;;4219767;28;20044;-79
2023/08/15 05:28:58;;;;;;;8.68;4.53;;;18.70;99.90;;;;;;4219391;28;20044;-80
2023/08/15 05:30:59;;;;;;;8.65;4.43;;;18.70;99.90;;;;;;4219058;28;20062;-80
2023/08/15 05:33:00;;;;;;;10.45;4.90;;;18.70;99.90;;;;;;4219626;28;20044;-80
2023/08/15 05:35:01;;;;;;;9.70;4.78;;;18.70;99.90;;;;;;4218380;28;20036;-79
2023/08/15 05:37:01;;;;;;;8.57;4.80;;;18.70;99.90;;;;;;4219786;28;20050;-79
2023/08/15 05:39:04;;;;;;;8.98;4.35;;;18.70;99.90;;;;;;4219783;28;20059;-79
2023/08/15 05:41:05;;;;;;;18.38;4.93;;;18.70;99.90;;;;;;4218308;28;20040;-80
2023/08/15 05:43:06;;;;;;;7.05;4.45;;;18.70;99.90;;;;;;4219695;28;20050;-80
2023/08/15 05:45:07;;;;;;;11.00;4.45;;;18.70;99.90;;;;;;4219766;28;20152;-80
2023/08/15 05:47:08;;;;;;;7.70;5.13;;;18.70;99.90;;;;;;4219796;28;20070;-79
2023/08/15 05:49:08;;;;;;;10.05;4.90;;;18.70;99.90;;;;;;4219534;28;20173;-79
2023/08/15 05:51:09;;;;;;;12.50;4.70;;;18.70;99.90;;;;;;4219664;28;20068;-79
2023/08/15 05:53:10;;;;;;;10.82;4.85;;;18.80;99.90;;;;;;4219424;28;20043;-80
2023/08/15 05:55:10;;;;;;;11.77;5.00;;;18.70;99.90;;;;;;4219290;28;20047;-80
2023/08/15 05:57:11;;;;;;;8.15;4.68;;;18.80;99.90;;;;;;4219002;28;20040;-80
2023/08/15 05:59:12;;;;;;;10.73;4.75;;;18.80;99.90;;;;;;4219159;28;20054;-79
2023/08/15 06:01:12;;;;;;;13.98;4.88;;;18.80;99.90;;;;;;4219336;28;20677;-80
2023/08/15 06:03:13;;;;;;;9.07;4.88;;;18.80;99.90;;;;;;4219528;28;20075;-80
2023/08/15 06:05:14;;;;;;;9.65;4.65;;;18.90;99.90;;;;;;4219490;28;20104;-80
2023/08/15 06:07:14;;;;;;;10.95;4.30;;;18.80;99.90;;;;;;4218935;28;20051;-79
2023/08/15 06:09:15;;;;;;;10.98;4.35;;;18.90;99.90;;;;;;4219082;28;20507;-80
2023/08/15 06:11:16;;;;;;;9.57;5.15;;;18.80;99.90;;;;;;4219171;28;20048;-79
2023/08/15 06:13:17;;;;;;;11.57;4.32;;;18.80;99.90;;;;;;4219338;28;20400;-79
2023/08/15 06:15:17;;;;;;;8.75;4.68;;;18.80;99.90;;;;;;4219217;28;20079;-79
2023/08/15 06:17:18;;;;;;;9.40;4.40;;;18.70;99.90;;;;;;4218988;28;20480;-79
2023/08/15 06:19:19;;;;;;;8.57;5.00;;;18.70;99.90;;;;;;4218672;28;20784;-79
2023/08/15 06:21:20;;;;;;;10.32;4.57;;;18.70;99.90;;;;;;4219272;28;20892;-79
2023/08/15 06:23:21;;;;;;;13.73;4.18;;;18.70;99.90;;;;;;4218994;28;20052;-80
2023/08/15 06:25:21;;;;;;;12.45;5.03;;;18.70;99.90;;;;;;4219213;28;20075;-79
2023/08/15 06:27:22;;;;;;;11.80;3.78;;;18.70;99.90;;;;;;4218767;28;20047;-79
2023/08/15 06:29:25;;;;;;;9.48;4.30;;;18.80;99.90;;;;;;4219207;28;20491;-80
2023/08/15 06:31:26;;;;;;;13.40;4.38;;;18.80;99.90;;;;;;4219204;28;20127;-77
2023/08/15 06:33:27;;;;;;;10.50;4.90;;;18.90;99.90;;;;;;4217129;28;20047;-77
2023/08/15 06:35:28;;;;;;;11.88;4.00;;;18.90;99.90;;;;;;4216324;28;20055;-80
2023/08/15 06:37:29;;;;;;;8.35;3.70;;;19.00;99.90;;;;;;4216459;28;20048;-80
2023/08/15 06:39:30;;;;;;;9.05;3.97;;;19.00;99.90;;;;;;4216394;28;20767;-80
2023/08/15 06:41:31;;;;;;;16.10;3.58;;;19.10;99.90;;;;;;4216129;28;20577;-77
2023/08/15 06:43:32;;;;;;;8.45;4.00;;;19.20;99.90;;;;;;4198084;28;20060;-77
2023/08/15 06:45:36;;;;;;;11.35;3.75;;;19.20;99.90;;;;;;4216358;28;20123;-77
2023/08/15 06:47:37;;;;;;;9.68;3.25;;;19.20;99.90;;;;;;4219307;28;20075;-79
2023/08/15 06:49:38;;;;;;;9.10;3.15;;;19.20;99.90;;;;;;4215958;28;20040;-83
2023/08/15 06:51:39;;;;;;;13.43;3.40;;;19.20;99.90;;;;;;4215279;28;20524;-80
2023/08/15 06:53:43;;;;;;;9.25;3.30;;;19.20;99.90;;;;;;4237884;28;20081;-79
2023/08/15 06:55:44;;;;;;;7.85;3.50;;;19.20;99.90;;;;;;4230553;28;20044;-80
2023/08/15 06:57:45;;;;;;;8.90;3.33;;;19.20;99.90;;;;;;4217540;28;20119;-80
2023/08/15 06:59:45;;;;;;;12.02;3.00;;;19.20;99.90;;;;;;4216022;28;20079;-80
2023/08/15 07:01:46;;;;;;;8.48;3.97;;;19.20;99.90;;;;;;4215210;28;20411;-80
2023/08/15 07:03:47;;;;;;;10.10;3.97;;;19.30;99.90;;;;;;4215936;28;20040;-80
2023/08/15 07:05:49;;;;;;;9.18;3.47;;;19.40;99.90;;;;;;4215440;28;20547;-79
2023/08/15 07:07:50;;;;;;;12.65;3.30;;;19.50;99.90;;;;;;4216034;28;20040;-79
2023/08/15 07:09:51;;;;;;;10.75;3.60;;;19.60;99.90;;;;;;4214895;28;20044;-79
2023/08/15 07:11:51;;;;;;;8.75;3.08;;;19.80;99.90;;;;;;4215862;28;20054;-79
2023/08/15 07:13:52;;;;;;;11.18;3.20;;;20.00;99.90;;;;;;4215732;28;20051;-79
2023/08/15 07:15:56;;;;;;;12.50;3.33;;;20.10;99.90;;;;;;4215594;28;20080;-79
2023/08/15 07:17:57;;;;;;;8.77;2.67;;;20.20;99.90;;;;;;4215572;28;20040;-79
2023/08/15 07:19:58;;;;;;;12.35;3.15;;;20.30;99.90;;;;;;4214182;28;20048;-79
2023/08/15 07:21:59;;;;;;;12.38;3.33;;;20.10;99.90;;;;;;4215299;28;20044;-79
2023/08/15 07:24:00;;;;;;;7.78;2.70;;;20.50;99.90;;;;;;4218751;28;20094;-79
2023/08/15 07:26:01;;;;;;;12.45;2.90;;;20.60;99.90;;;;;;4214485;28;20044;-79
2023/08/15 07:28:01;;;;;;;12.40;2.90;;;20.70;99.90;;;;;;4215377;28;20085;-79
2023/08/15 07:30:03;;;;;;;16.77;3.88;;;20.90;99.90;;;;;;4232420;28;20044;-81
2023/08/15 07:32:09;;;;;;;9.82;2.63;;;21.00;99.90;;;;;;4232458;27;20073;-81
2023/08/15 07:34:11;;;;;;;7.90;3.28;;;21.00;99.90;;;;;;4247986;27;20039;-81
2023/08/15 07:36:12;;;;;;;8.10;2.55;;;21.00;99.90;;;;;;4242074;27;20042;-80
2023/08/15 07:38:14;;;;;;;6.35;3.30;;;21.00;99.90;;;;;;4232365;28;20391;-81
2023/08/15 07:40:20;;;;;;;10.45;2.75;;;21.00;99.90;;;;;;4230908;28;20044;-79
2023/08/15 07:42:26;;;;;;;12.68;3.92;;;20.90;99.90;;;;;;4228500;28;20036;-80
2023/08/15 07:44:27;;;;;;;10.45;2.80;;;20.90;99.90;;;;;;4215440;28;20824;-81
2023/08/15 07:46:28;;;;;;;7.03;2.45;;;21.00;99.90;;;;;;4215566;28;20122;-81
2023/08/15 07:48:29;;;;;;;5.35;2.70;;;21.20;99.90;;;;;;4216905;28;20048;-81
2023/08/15 07:50:30;;;;;;;6.68;2.53;;;21.30;99.90;;;;;;4231866;28;20514;-80
2023/08/15 07:52:30;;;;;;;12.90;2.47;;;21.40;99.90;;;;;;4231866;28;20039;-80
2023/08/15 07:54:31;;;;;;;8.52;2.70;;;21.60;99.90;;;;;;4229774;27;20422;-80
2023/08/15 07:56:33;;;;;;;8.63;2.88;;;21.70;99.90;;;;;;4218860;28;20040;-80
2023/08/15 07:58:35;;;;;;;8.77;2.50;;;21.60;99.90;;;;;;4221382;28;20464;-81
2023/08/15 08:00:36;;;;;;;5.55;2.20;;;21.70;99.90;;;;;;4231984;27;20147;-81
2023/08/15 08:02:37;;;;;;;7.72;1.88;;;21.80;99.90;;;;;;4239768;27;20122;-81
2023/08/15 08:04:38;;;;;;;11.20;3.53;;;21.90;99.90;;;;;;4248755;27;20039;-80
2023/08/15 08:06:38;;;;;;;6.72;2.53;;;22.00;99.90;;;;;;4232136;27;20452;-81
2023/08/15 08:08:42;;;;;;;6.00;2.72;;;22.20;99.90;;;;;;4215833;28;20784;-83
2023/08/15 08:10:43;;;;;;;7.40;2.35;;;22.30;99.90;;;;;;4216140;28;20052;-81
2023/08/15 08:12:45;;;;;;;8.65;2.28;;;22.30;99.90;;;;;;4215910;28;20059;-81
2023/08/15 08:14:46;;;;;;;6.40;1.70;;;22.30;99.90;;;;;;4227279;28;20540;-81
2023/08/15 08:16:47;;;;;;;6.30;2.50;;;22.40;99.90;;;;;;4225952;28;20047;-82
2023/08/15 08:18:47;;;;;;;7.38;1.65;;;22.60;99.90;;;;;;4231916;28;20115;-81
2023/08/15 08:20:49;;;;;;;6.22;1.80;;;22.60;99.90;;;;;;4230595;28;20094;-81
2023/08/15 08:22:50;;;;;;;6.88;1.80;;;22.60;99.90;;;;;;4231774;28;20384;-81
2023/08/15 08:24:53;;;;;;;3.35;1.20;;;22.60;99.90;;;;;;4227619;28;20138;-82
2023/08/15 08:26:53;;;;;;;8.15;1.60;;;22.60;99.90;;;;;;4214847;28;20503;-82
2023/08/15 08:28:54;;;;;;;6.40;1.30;;;22.60;99.90;;;;;;4215182;28;20040;-81
2023/08/15 08:30:55;;;;;;;5.97;1.40;;;22.40;99.90;;;;;;4213555;28;20063;-80
2023/08/15 08:32:56;;;;;;;4.40;1.30;;;22.40;99.90;;;;;;4215750;28;20048;-80
2023/08/15 08:34:57;;;;;;;3.42;1.10;;;22.40;99.90;;;;;;4214538;28;20473;-81
2023/08/15 08:36:58;;;;;;;5.05;2.58;;;22.40;99.90;;;;;;4212805;28;20055;-81
2023/08/15 08:38:59;;;;;;;3.65;1.55;;;22.30;99.90;;;;;;4214251;28;20044;-81
2023/08/15 08:41:00;;;;;;;4.95;1.00;;;22.40;99.90;;;;;;4214550;28;20498;-81
2023/08/15 08:43:00;;;;;;;7.18;1.90;;;22.30;99.90;;;;;;4213962;28;20124;-81
2023/08/15 08:45:02;;;;;;;4.78;1.52;;;22.20;99.90;;;;;;4214493;28;20097;-79
2023/08/15 08:47:03;;;;;;;6.38;2.10;;;22.30;99.90;;;;;;4213313;28;20431;-79
2023/08/15 08:49:06;;;;;;;7.07;1.45;;;22.40;99.90;;;;;;4214529;28;20036;-80
2023/08/15 08:51:08;;;;;;;8.98;1.42;;;22.50;99.90;;;;;;4214599;28;20123;-80
2023/08/15 08:53:09;;;;;;;6.07;2.05;;;22.60;99.90;;;;;;4214514;28;20404;-79
2023/08/15 08:55:10;;;;;;;5.18;1.15;;;22.70;99.90;;;;;;4212734;28;20052;-79
2023/08/15 08:57:11;;;;;;;6.63;1.10;;;22.90;99.90;;;;;;4213410;28;20464;-78
2023/08/15 08:59:15;;;;;;;9.18;1.80;;;23.30;99.90;;;;;;4212919;28;20040;-79
2023/08/15 09:01:16;;;;;;;6.70;1.73;;;22.80;99.90;;;;;;4217377;28;20048;-80
2023/08/15 09:03:17;;;;;;;7.68;2.00;;;23.00;99.90;;;;;;4222985;28;20051;-80
2023/08/15 09:05:18;;;;;;;5.93;1.45;;;23.10;99.90;;;;;;4231055;28;20039;-80
2023/08/15 09:07:18;;;;;;;5.45;1.30;;;23.50;99.90;;;;;;4221845;28;20084;-80
2023/08/15 09:09:19;;;;;;;3.40;1.10;;;23.90;99.90;;;;;;4215000;28;20040;-80
2023/08/15 09:11:31;;;;;;;3.80;1.20;;;24.10;99.90;;;;;;4226814;28;20099;-80
2023/08/15 09:13:33;;;;;;;5.10;1.50;;;24.40;99.90;;;;;;4226841;28;20077;-80
2023/08/15 09:15:34;;;;;;;10.82;1.77;;;24.50;99.90;;;;;;4226773;28;20051;-80
2023/08/15 09:17:35;;;;;;;5.30;1.38;;;24.70;99.90;;;;;;4216949;28;20043;-81
2023/08/15 09:19:39;;;;;;;3.20;0.77;;;24.80;99.90;;;;;;4214972;28;20044;-81
2023/08/15 09:21:41;;;;;;;5.47;1.30;;;24.90;99.90;;;;;;4214817;28;20388;-81
2023/08/15 09:23:42;;;;;;;7.13;1.75;;;24.80;99.90;;;;;;4213639;28;20133;-82
2023/08/15 09:25:42;;;;;;;3.15;1.17;;;24.60;99.90;;;;;;4214390;28;20043;-89
2023/08/15 09:27:44;;;;;;;3.25;0.77;;;24.80;99.90;;;;;;4213279;28;20048;-82
2023/08/15 09:29:45;;;;;;;7.50;1.30;;;24.70;99.90;;;;;;4215034;28;20081;-81
2023/08/15 09:31:48;;;;;;;7.40;1.40;;;24.60;99.90;;;;;;4212373;28;20528;-82
2023/08/15 09:33:49;;;;;;;4.10;0.77;;;24.50;99.90;;;;;;4214187;28;20048;-79
2023/08/15 09:35:51;;;;;;;4.55;0.80;;;24.60;99.90;;;;;;4212989;28;20055;-81
2023/08/15 09:37:52;;;;;;;3.78;0.95;;;24.70;99.90;;;;;;4217996;28;20127;-82
2023/08/15 09:39:53;;;;;;;2.80;0.90;;;24.60;99.90;;;;;;4228096;28;20078;-82
2023/08/15 09:41:53;;;;;;;10.27;1.33;;;24.70;99.90;;;;;;4226269;28;20059;-82
2023/08/15 09:43:54;;;;;;;4.13;0.98;;;24.70;99.90;;;;;;4218950;28;20048;-82
2023/08/15 09:45:58;;;;;;;3.22;0.93;;;24.70;99.90;;;;;;4229714;28;20494;-82
2023/08/15 09:48:00;;;;;;;4.18;1.30;;;24.80;99.90;;;;;;4223015;28;20504;-82
2023/08/15 09:50:01;;;;;;;4.47;1.27;;;24.90;99.90;;;;;;4213933;28;20488;-78
2023/08/15 09:52:04;;;;;;;5.40;1.55;;;25.10;99.90;;;;;;4212666;28;20515;-79
2023/08/15 09:54:06;;;;;;;3.55;1.17;;;25.40;99.90;;;;;;4213853;28;20552;-80
2023/08/15 09:56:08;;;;;;;3.85;1.13;;;25.30;99.90;;;;;;4213811;28;20036;-80
2023/08/15 09:58:08;;;;;;;2.08;0.82;;;25.20;99.90;;;;;;4213567;28;20123;-81
2023/08/15 10:00:12;;;;;;;3.97;0.93;;;25.40;99.90;;;;;;4220274;28;20055;-80
2023/08/15 10:02:22;;;;;;;4.78;1.33;;;25.40;99.90;;;;;;4230392;28;20053;-80
2023/08/15 10:04:28;;;;;;;4.43;1.00;;;25.50;99.90;;;;;;4230648;28;20128;-81
2023/08/15 10:06:29;;;;;;;6.03;0.90;;;25.30;99.90;;;;;;4230321;28;20051;-81
2023/08/15 10:08:30;;;;;;;3.22;0.80;;;25.10;99.90;;;;;;4230314;28;20048;-80
2023/08/15 10:10:35;;;;;;;2.90;0.70;;;24.80;99.90;;;;;;4233541;28;20092;-81
2023/08/15 10:12:39;;;;;;;2.83;0.80;;;24.80;99.90;;;;;;4233489;28;20104;-80
2023/08/15 10:14:40;;;;;;;5.20;2.17;;;24.80;99.90;;;;;;4233705;28;20109;-80
2023/08/15 10:16:41;;;;;;;3.05;1.30;;;24.60;99.90;;;;;;4233567;28;20043;-80
2023/08/15 10:18:56;;;;;;;3.53;0.60;;;24.50;99.90;;;;;;4233904;28;20067;-80
2023/08/15 10:20:58;;;;;;;3.10;0.70;;;24.30;99.90;;;;;;4232631;28;20154;-80
2023/08/15 10:22:59;;;;;;;3.65;1.35;;;24.30;99.90;;;;;;4232087;28;20547;-80
2023/08/15 10:25:20;;;;;;;6.32;1.05;;;24.40;99.90;;;;;;4233580;28;20077;-80
2023/08/15 10:27:21;;;;;;;3.03;1.17;;;24.20;99.90;;;;;;4233605;28;20039;-80
2023/08/15 10:29:22;;;;;;;6.47;1.23;;;24.10;99.90;;;;;;4233643;28;20130;-81
2023/08/15 10:31:37;;;;;;;5.57;1.00;;;24.00;99.90;;;;;;4233366;28;20044;-81